Time;durP1;ratioP1;P1;durP2;ratioP2;P2;SDS_P1;SDS_P2;PMS_P1;PMS_P2;Temp;Humidity;BMP_temperature;BMP_pressure;BME280_temperature;BME280_humidity;BME280_pressure;Samples;Min_cycle;Max_cycle;Signal;HPM_P1;HPM_P2
2022/11/27 00:01:14;;;;;;;21.00;7.28;;;8.00;99.90;;;;;;5095589;28;20460;-65
2022/11/27 00:03:41;;;;;;;24.80;7.03;;;8.00;99.90;;;;;;5095965;28;20028;-66
2022/11/27 00:06:10;;;;;;;20.70;7.28;;;8.00;99.90;;;;;;5095449;28;20495;-66
2022/11/27 00:08:36;;;;;;;20.58;6.57;;;7.90;99.90;;;;;;5095612;28;20043;-66
2022/11/27 00:11:07;;;;;;;22.75;6.20;;;7.80;99.90;;;;;;5077642;28;20433;-65
2022/11/27 00:13:33;;;;;;;19.98;6.55;;;7.90;99.90;;;;;;5096037;28;20032;-65
2022/11/27 00:15:59;;;;;;;19.77;6.47;;;7.80;99.90;;;;;;5095675;28;20028;-65
2022/11/27 00:18:24;;;;;;;24.05;7.82;;;7.80;99.90;;;;;;5095332;28;20043;-66
2022/11/27 00:20:50;;;;;;;17.67;5.97;;;7.80;99.90;;;;;;5095388;28;20028;-66
2022/11/27 00:23:16;;;;;;;17.83;6.18;;;7.90;99.90;;;;;;5095393;28;20178;-66
2022/11/27 00:25:50;;;;;;;16.67;6.00;;;8.00;99.90;;;;;;5095491;28;20027;-66
2022/11/27 00:28:15;;;;;;;27.85;7.00;;;8.00;99.90;;;;;;5095236;28;20028;-65
2022/11/27 00:30:41;;;;;;;21.65;6.57;;;7.90;99.90;;;;;;5095378;28;20032;-68
2022/11/27 00:33:07;;;;;;;24.77;6.82;;;8.00;99.90;;;;;;5095209;28;20028;-66
2022/11/27 00:35:32;;;;;;;24.10;6.63;;;8.00;99.90;;;;;;5095127;28;20469;-66
2022/11/27 00:37:58;;;;;;;29.70;7.07;;;8.00;99.90;;;;;;5095171;28;20032;-66
2022/11/27 00:40:24;;;;;;;26.40;6.72;;;8.00;99.90;;;;;;5095357;28;20032;-66
2022/11/27 00:42:49;;;;;;;27.15;6.97;;;8.10;99.90;;;;;;5095112;28;20561;-69
2022/11/27 00:45:15;;;;;;;20.58;5.82;;;8.10;99.90;;;;;;5095057;28;20027;-67
2022/11/27 00:47:41;;;;;;;21.63;6.53;;;8.10;99.90;;;;;;5094502;28;20078;-66
2022/11/27 00:50:07;;;;;;;20.77;6.65;;;8.20;99.90;;;;;;5094707;28;20040;-66
2022/11/27 00:52:33;;;;;;;19.15;6.47;;;8.20;99.90;;;;;;5094788;28;20024;-66
2022/11/27 00:54:58;;;;;;;19.88;5.68;;;8.10;99.90;;;;;;5095143;28;20430;-68
2022/11/27 00:57:24;;;;;;;29.50;6.45;;;8.20;99.90;;;;;;5094708;28;20536;-65
2022/11/27 00:59:50;;;;;;;21.00;5.65;;;8.10;99.90;;;;;;5094524;28;20043;-67
2022/11/27 01:02:16;;;;;;;20.58;6.35;;;8.20;99.90;;;;;;5094755;28;20491;-66
2022/11/27 01:04:45;;;;;;;18.40;5.40;;;8.20;99.90;;;;;;5094409;28;20489;-65
2022/11/27 01:07:10;;;;;;;22.48;7.20;;;8.20;99.90;;;;;;5094539;28;20028;-67
2022/11/27 01:09:36;;;;;;;23.40;6.43;;;8.30;99.90;;;;;;5076665;28;20043;-72
2022/11/27 01:12:02;;;;;;;21.90;5.65;;;8.40;99.90;;;;;;5076393;28;20036;-65
2022/11/27 01:14:28;;;;;;;19.30;5.63;;;8.40;99.90;;;;;;5094240;28;20024;-65
2022/11/27 01:16:54;;;;;;;23.63;6.18;;;8.40;99.90;;;;;;5094435;28;20491;-65
2022/11/27 01:19:19;;;;;;;22.50;6.13;;;8.40;99.90;;;;;;5075954;28;20040;-65
2022/11/27 01:21:45;;;;;;;18.55;5.95;;;8.30;99.90;;;;;;5094372;28;20032;-65
2022/11/27 01:24:13;;;;;;;14.40;5.28;;;8.30;99.90;;;;;;5094226;28;20479;-66
2022/11/27 01:26:39;;;;;;;14.70;5.20;;;8.40;99.90;;;;;;5094479;28;20135;-65
2022/11/27 01:29:04;;;;;;;30.77;5.28;;;8.30;99.90;;;;;;5075812;28;20119;-65
2022/11/27 01:31:32;;;;;;;28.67;6.18;;;8.30;99.90;;;;;;5094358;28;20024;-66
2022/11/27 01:34:00;;;;;;;17.88;5.60;;;8.40;99.90;;;;;;5093691;28;20529;-65
2022/11/27 01:36:27;;;;;;;17.02;5.57;;;8.40;99.90;;;;;;5094017;28;20052;-65
2022/11/27 01:38:53;;;;;;;22.63;5.65;;;8.30;99.90;;;;;;5093980;28;20118;-66
2022/11/27 01:41:20;;;;;;;22.02;5.00;;;8.30;99.90;;;;;;5094296;28;20127;-66
2022/11/27 01:43:51;;;;;;;26.10;6.07;;;8.20;99.90;;;;;;5093904;28;20089;-65
2022/11/27 01:46:22;;;;;;;25.50;5.32;;;8.20;99.90;;;;;;5093617;28;20058;-65
2022/11/27 01:48:50;;;;;;;18.08;4.50;;;8.30;99.90;;;;;;5093303;28;20028;-66
2022/11/27 01:51:16;;;;;;;18.70;5.38;;;8.30;99.90;;;;;;5093735;28;20024;-67
2022/11/27 01:53:42;;;;;;;23.55;4.80;;;8.30;99.90;;;;;;5093720;28;20372;-66
2022/11/27 01:56:08;;;;;;;23.88;6.30;;;8.30;99.90;;;;;;5075664;28;20035;-65
2022/11/27 01:58:34;;;;;;;17.80;4.82;;;8.30;99.90;;;;;;5093506;28;20496;-65
2022/11/27 02:01:00;;;;;;;18.13;6.10;;;8.30;99.90;;;;;;5092824;28;20111;-67
2022/11/27 02:03:26;;;;;;;21.23;5.25;;;8.40;99.90;;;;;;5093284;28;20021;-65
2022/11/27 02:05:52;;;;;;;19.30;4.85;;;8.40;99.90;;;;;;5093576;28;20055;-65
2022/11/27 02:08:18;;;;;;;20.33;4.88;;;8.30;99.90;;;;;;5093272;28;20470;-66
2022/11/27 02:11:05;;;;;;;22.35;5.05;;;8.30;99.90;;;;;;5093571;28;20452;-65
2022/11/27 02:14:01;;;;;;;23.48;6.15;;;8.30;99.90;;;;;;5093294;28;20039;-67
2022/11/27 02:16:30;;;;;;;18.05;4.93;;;8.40;99.90;;;;;;5084715;28;20044;-65
2022/11/27 02:18:59;;;;;;;21.15;5.25;;;8.40;99.90;;;;;;5091590;28;20361;-65
2022/11/27 02:21:48;;;;;;;18.17;4.82;;;8.40;99.90;;;;;;5093093;28;20039;-67
2022/11/27 02:24:42;;;;;;;16.40;4.38;;;8.40;99.90;;;;;;5092948;28;20384;-66
2022/11/27 02:27:29;;;;;;;19.08;4.70;;;8.40;99.90;;;;;;5093114;28;20056;-66
2022/11/27 02:29:59;;;;;;;15.32;3.42;;;8.50;99.90;;;;;;5092945;28;20024;-65
2022/11/27 02:32:44;;;;;;;14.93;4.85;;;8.40;99.90;;;;;;5093243;28;20111;-65
2022/11/27 02:35:22;;;;;;;13.25;3.72;;;8.40;99.90;;;;;;5074834;28;20031;-66
2022/11/27 02:37:56;;;;;;;16.17;4.72;;;8.40;99.90;;;;;;5093049;28;20032;-67
2022/11/27 02:40:25;;;;;;;14.77;4.00;;;8.40;99.90;;;;;;5093029;28;20051;-67
2022/11/27 02:43:07;;;;;;;18.70;4.07;;;8.50;99.90;;;;;;5092981;28;20472;-73
2022/11/27 02:45:41;;;;;;;16.85;4.45;;;8.40;99.90;;;;;;5080241;28;20066;-69
2022/11/27 02:48:09;;;;;;;14.23;4.55;;;8.40;99.90;;;;;;5092757;28;20446;-72
2022/11/27 02:50:37;;;;;;;18.02;4.53;;;8.40;99.90;;;;;;5092809;28;20036;-73
2022/11/27 02:53:07;;;;;;;14.20;3.90;;;8.40;99.90;;;;;;5092823;28;20035;-73
2022/11/27 02:55:34;;;;;;;17.90;4.47;;;8.50;99.90;;;;;;5092536;28;20031;-71
2022/11/27 02:58:02;;;;;;;17.88;3.67;;;8.40;99.90;;;;;;5092936;28;20107;-73
2022/11/27 03:00:29;;;;;;;13.20;3.83;;;8.50;99.90;;;;;;5074643;28;20024;-72
2022/11/27 03:03:00;;;;;;;17.92;4.70;;;8.40;99.90;;;;;;5092852;28;20027;-66
2022/11/27 03:05:31;;;;;;;11.90;3.65;;;8.40;99.90;;;;;;5092503;28;20052;-72
2022/11/27 03:08:00;;;;;;;9.18;3.42;;;8.50;99.90;;;;;;5092455;28;20388;-72
2022/11/27 03:10:34;;;;;;;14.95;3.67;;;8.50;99.90;;;;;;5092650;28;20043;-72
2022/11/27 03:13:02;;;;;;;18.85;4.68;;;8.60;99.90;;;;;;5097091;28;20032;-72
2022/11/27 03:15:38;;;;;;;13.80;3.25;;;8.50;99.90;;;;;;5078237;28;20032;-72
2022/11/27 03:18:19;;;;;;;10.93;3.95;;;8.50;99.90;;;;;;5096599;28;20460;-66
2022/11/27 03:20:48;;;;;;;15.35;3.65;;;8.50;99.90;;;;;;5096760;28;20032;-65
2022/11/27 03:23:13;;;;;;;12.05;3.72;;;8.40;99.90;;;;;;5096591;28;20036;-72
2022/11/27 03:25:40;;;;;;;11.68;3.28;;;8.40;99.90;;;;;;5096357;28;20024;-69
2022/11/27 03:28:09;;;;;;;11.55;3.83;;;8.40;99.90;;;;;;5078319;28;20051;-72
2022/11/27 03:30:35;;;;;;;12.00;3.50;;;8.40;99.90;;;;;;5096286;28;20028;-66
2022/11/27 03:33:01;;;;;;;15.00;4.43;;;8.50;99.90;;;;;;5096168;28;20016;-71
2022/11/27 03:35:27;;;;;;;15.23;3.47;;;8.50;99.90;;;;;;5096295;28;20035;-71
2022/11/27 03:37:54;;;;;;;14.25;4.18;;;8.40;99.90;;;;;;5096357;28;20026;-71
2022/11/27 03:40:24;;;;;;;18.88;4.85;;;8.50;99.90;;;;;;5096154;28;20044;-65
2022/11/27 03:42:56;;;;;;;15.10;4.55;;;8.50;99.90;;;;;;5096214;28;20361;-70
2022/11/27 03:45:41;;;;;;;20.58;4.40;;;8.40;99.90;;;;;;5096138;28;20047;-70
2022/11/27 03:48:27;;;;;;;21.73;4.07;;;8.40;99.90;;;;;;5095972;28;20522;-65
2022/11/27 03:51:08;;;;;;;16.30;3.95;;;8.40;99.90;;;;;;5096096;28;20048;-70
2022/11/27 03:53:57;;;;;;;17.38;4.07;;;8.40;99.90;;;;;;5082200;28;20020;-70
2022/11/27 03:56:35;;;;;;;15.30;3.55;;;8.40;99.90;;;;;;5095923;28;20036;-70
2022/11/27 03:59:31;;;;;;;12.32;3.67;;;8.30;99.90;;;;;;5095683;28;20028;-70
2022/11/27 04:01:57;;;;;;;12.73;3.42;;;8.30;99.90;;;;;;5095622;28;20043;-70
2022/11/27 04:04:24;;;;;;;17.55;3.28;;;8.40;99.90;;;;;;5095652;28;20035;-68
2022/11/27 04:06:49;;;;;;;14.10;3.30;;;8.30;99.90;;;;;;5095581;28;20016;-66
2022/11/27 04:09:15;;;;;;;9.57;2.90;;;8.20;99.90;;;;;;5095658;28;20384;-70
2022/11/27 04:11:41;;;;;;;14.05;3.58;;;8.20;99.90;;;;;;5095482;28;20020;-70
2022/11/27 04:14:07;;;;;;;9.18;2.88;;;8.20;99.90;;;;;;5095379;28;20039;-66
2022/11/27 04:16:33;;;;;;;7.53;3.42;;;8.20;99.90;;;;;;5077466;28;20055;-70
2022/11/27 04:18:58;;;;;;;11.38;3.38;;;8.20;99.90;;;;;;5095228;28;20519;-70
2022/11/27 04:21:24;;;;;;;9.98;2.80;;;8.10;99.90;;;;;;5095506;28;20491;-70
2022/11/27 04:23:50;;;;;;;18.75;3.80;;;8.10;99.90;;;;;;5094395;28;20472;-70
2022/11/27 04:26:16;;;;;;;10.50;3.38;;;8.10;99.90;;;;;;5095459;28;20067;-70
2022/11/27 04:28:41;;;;;;;11.13;2.47;;;8.10;99.90;;;;;;5094885;28;20055;-69
2022/11/27 04:31:07;;;;;;;11.75;2.58;;;8.10;99.90;;;;;;5095311;28;20035;-69
2022/11/27 04:33:33;;;;;;;12.65;2.97;;;8.00;99.90;;;;;;5095143;28;20020;-69
2022/11/27 04:35:58;;;;;;;10.95;2.58;;;8.00;99.90;;;;;;5095566;28;20492;-68
2022/11/27 04:38:24;;;;;;;6.05;2.40;;;8.00;99.90;;;;;;5095287;28;20088;-65
2022/11/27 04:40:52;;;;;;;7.80;2.97;;;8.00;99.90;;;;;;5093811;28;20028;-66
2022/11/27 04:43:18;;;;;;;16.27;3.67;;;8.00;99.90;;;;;;5094908;28;20060;-65
2022/11/27 04:45:44;;;;;;;9.38;3.20;;;7.90;99.90;;;;;;5095210;28;20031;-66
2022/11/27 04:48:10;;;;;;;11.77;3.00;;;8.00;99.90;;;;;;5095415;28;20016;-68
2022/11/27 04:50:36;;;;;;;11.38;2.80;;;7.90;99.90;;;;;;5095209;28;20063;-69
2022/11/27 04:53:01;;;;;;;7.57;2.78;;;7.90;99.90;;;;;;5094983;28;20047;-65
2022/11/27 04:55:27;;;;;;;6.93;2.42;;;7.80;99.90;;;;;;5093530;28;20024;-65
2022/11/27 04:57:53;;;;;;;11.43;2.58;;;8.00;99.90;;;;;;5094570;28;20529;-65
2022/11/27 05:00:19;;;;;;;9.43;2.53;;;7.80;99.90;;;;;;5094311;28;20040;-70
2022/11/27 05:02:45;;;;;;;8.95;3.28;;;7.90;99.90;;;;;;5094709;28;20119;-65
2022/11/27 05:05:11;;;;;;;10.65;3.30;;;7.80;99.90;;;;;;5094487;28;20162;-70
2022/11/27 05:07:36;;;;;;;8.85;3.33;;;7.80;99.90;;;;;;5094588;28;20019;-65
2022/11/27 05:10:04;;;;;;;12.73;3.22;;;7.80;99.90;;;;;;5094155;28;20111;-70
2022/11/27 05:12:29;;;;;;;6.72;2.58;;;7.80;99.90;;;;;;5076200;28;20028;-70
2022/11/27 05:14:55;;;;;;;10.23;3.10;;;7.70;99.90;;;;;;5094708;28;20032;-70
2022/11/27 05:17:21;;;;;;;10.63;2.78;;;7.70;99.90;;;;;;5080574;28;20036;-70
2022/11/27 05:19:47;;;;;;;9.75;2.80;;;7.90;99.90;;;;;;5074667;28;20036;-66
2022/11/27 05:22:12;;;;;;;14.73;3.53;;;7.80;99.90;;;;;;5094048;28;20032;-70
2022/11/27 05:24:38;;;;;;;12.05;3.42;;;7.80;99.90;;;;;;5094257;28;20073;-70
2022/11/27 05:27:04;;;;;;;13.65;3.45;;;7.80;99.90;;;;;;5094008;28;20020;-65
2022/11/27 05:29:30;;;;;;;8.07;2.80;;;7.70;99.90;;;;;;5059088;28;20384;-70
2022/11/27 05:31:55;;;;;;;8.25;3.13;;;7.60;99.90;;;;;;5094211;28;20453;-70
2022/11/27 05:34:21;;;;;;;11.32;3.15;;;7.70;99.90;;;;;;5094201;28;20039;-70
2022/11/27 05:36:47;;;;;;;13.02;3.08;;;7.70;99.90;;;;;;5094111;28;20468;-70
2022/11/27 05:39:13;;;;;;;11.75;2.92;;;7.70;99.90;;;;;;5093680;28;20158;-68
2022/11/27 05:41:41;;;;;;;11.95;3.53;;;7.70;99.90;;;;;;5093825;28;20165;-69
2022/11/27 05:44:11;;;;;;;13.75;4.32;;;7.80;99.90;;;;;;5093879;28;20016;-70
2022/11/27 05:46:37;;;;;;;8.38;2.92;;;7.80;99.90;;;;;;5075775;28;20026;-70
2022/11/27 05:49:02;;;;;;;11.65;2.70;;;7.90;99.90;;;;;;5093563;28;20570;-70
2022/11/27 05:51:28;;;;;;;7.57;3.33;;;7.90;99.90;;;;;;5093641;28;20023;-66
2022/11/27 05:53:54;;;;;;;10.88;2.58;;;7.80;99.90;;;;;;5075436;28;20063;-69
2022/11/27 05:56:20;;;;;;;7.97;2.88;;;7.80;99.90;;;;;;5093614;28;20056;-70
2022/11/27 05:58:47;;;;;;;12.90;3.80;;;7.70;99.90;;;;;;5093343;28;20024;-65
2022/11/27 06:01:14;;;;;;;16.35;3.05;;;7.80;99.90;;;;;;5092456;28;20213;-65
2022/11/27 06:03:40;;;;;;;11.63;3.47;;;7.80;99.90;;;;;;5093255;28;20055;-69
2022/11/27 06:06:12;;;;;;;13.63;3.65;;;7.80;99.90;;;;;;5093736;28;20488;-65
2022/11/27 06:08:39;;;;;;;8.95;3.38;;;7.80;99.90;;;;;;5092936;28;20118;-66
2022/11/27 06:11:07;;;;;;;11.18;3.65;;;7.80;99.90;;;;;;5093624;28;20028;-65
2022/11/27 06:13:33;;;;;;;11.27;3.30;;;7.90;99.90;;;;;;5093197;28;20016;-70
2022/11/27 06:16:04;;;;;;;7.75;3.38;;;7.90;99.90;;;;;;5093125;28;20077;-70
2022/11/27 06:18:30;;;;;;;13.45;3.17;;;7.90;99.90;;;;;;5093188;28;20035;-70
2022/11/27 06:20:55;;;;;;;10.60;4.25;;;7.80;99.90;;;;;;5093221;28;20419;-70
2022/11/27 06:23:21;;;;;;;9.35;3.03;;;7.80;99.90;;;;;;5074972;28;20081;-70
2022/11/27 06:25:47;;;;;;;11.55;3.08;;;7.70;99.90;;;;;;5092800;28;20028;-70
2022/11/27 06:28:12;;;;;;;10.82;3.90;;;7.80;99.90;;;;;;5093656;28;20111;-70
2022/11/27 06:30:38;;;;;;;9.57;3.38;;;7.80;99.90;;;;;;5093211;28;20032;-70
2022/11/27 06:33:04;;;;;;;12.40;4.13;;;7.80;99.90;;;;;;5092943;28;20057;-70
2022/11/27 06:35:29;;;;;;;10.45;3.50;;;7.80;99.90;;;;;;5092918;28;20074;-70
2022/11/27 06:37:55;;;;;;;11.88;3.40;;;7.80;99.90;;;;;;5074425;28;20017;-70
2022/11/27 06:40:21;;;;;;;8.70;3.45;;;7.80;99.90;;;;;;5092999;28;20477;-65
2022/11/27 06:42:46;;;;;;;12.05;3.53;;;7.80;99.90;;;;;;5092952;28;20024;-70
2022/11/27 06:45:12;;;;;;;13.63;3.72;;;7.90;99.90;;;;;;5092723;28;20036;-70
2022/11/27 06:47:38;;;;;;;12.55;3.90;;;7.90;99.90;;;;;;5092748;28;20111;-71
2022/11/27 06:50:05;;;;;;;11.63;4.10;;;7.80;99.90;;;;;;5084529;28;20055;-70
2022/11/27 06:52:31;;;;;;;11.50;3.90;;;7.80;99.90;;;;;;5062497;28;20039;-65
2022/11/27 06:54:56;;;;;;;9.50;4.65;;;7.90;99.90;;;;;;5096738;28;20020;-70
2022/11/27 06:57:22;;;;;;;12.27;3.90;;;7.90;99.90;;;;;;5096991;28;20112;-71
2022/11/27 06:59:48;;;;;;;17.33;4.35;;;7.90;99.90;;;;;;5075959;28;20067;-69
2022/11/27 07:02:14;;;;;;;11.23;4.70;;;7.80;99.90;;;;;;5093601;28;20073;-65
2022/11/27 07:04:40;;;;;;;12.13;4.00;;;7.80;99.90;;;;;;5101131;28;20050;-70
2022/11/27 07:07:06;;;;;;;10.25;4.07;;;7.70;99.90;;;;;;5076734;28;20051;-70
2022/11/27 07:09:32;;;;;;;13.60;4.88;;;7.80;99.90;;;;;;5095051;28;20107;-70
2022/11/27 07:11:58;;;;;;;10.05;4.18;;;7.80;99.90;;;;;;5096373;28;20602;-70
2022/11/27 07:14:24;;;;;;;10.90;4.40;;;7.90;99.90;;;;;;5092677;28;20032;-68
2022/11/27 07:16:50;;;;;;;16.08;5.32;;;7.80;99.90;;;;;;5099826;28;20023;-70
2022/11/27 07:19:16;;;;;;;10.23;4.57;;;7.90;99.90;;;;;;5085747;28;20495;-71
2022/11/27 07:21:41;;;;;;;10.73;4.97;;;7.90;99.90;;;;;;5079854;28;20040;-71
2022/11/27 07:24:08;;;;;;;12.20;4.97;;;7.80;99.90;;;;;;5093561;28;20123;-66
2022/11/27 07:26:34;;;;;;;11.32;4.28;;;7.90;99.90;;;;;;5107568;28;20027;-70
2022/11/27 07:29:00;;;;;;;11.10;4.82;;;7.80;99.90;;;;;;5096792;28;20020;-66
2022/11/27 07:31:28;;;;;;;15.57;5.15;;;7.80;99.90;;;;;;5095987;28;20035;-70
2022/11/27 07:33:56;;;;;;;10.40;4.68;;;7.80;99.90;;;;;;5100915;28;20076;-70
2022/11/27 07:36:24;;;;;;;11.98;4.70;;;7.80;99.90;;;;;;5094322;28;20055;-70
2022/11/27 07:38:50;;;;;;;10.02;4.63;;;7.80;99.90;;;;;;5101808;28;20042;-69
2022/11/27 07:41:17;;;;;;;16.73;5.03;;;7.80;99.90;;;;;;5105186;28;20035;-69
2022/11/27 07:43:43;;;;;;;11.00;4.68;;;7.80;99.90;;;;;;5101005;28;20020;-70
2022/11/27 07:46:15;;;;;;;15.32;4.50;;;7.80;99.90;;;;;;5094699;28;20093;-70
2022/11/27 07:48:41;;;;;;;11.60;5.35;;;7.80;99.90;;;;;;5050516;28;20021;-65
2022/11/27 07:51:11;;;;;;;15.10;4.70;;;7.80;99.90;;;;;;5069827;28;20094;-75
2022/11/27 07:53:38;;;;;;;12.95;4.97;;;7.90;99.90;;;;;;5091841;28;20027;-68
2022/11/27 07:56:05;;;;;;;9.13;4.75;;;7.80;99.90;;;;;;5102343;28;20015;-70
2022/11/27 07:58:31;;;;;;;11.23;4.97;;;7.80;99.90;;;;;;5096108;28;20036;-72
2022/11/27 08:00:57;;;;;;;11.02;4.28;;;7.90;99.90;;;;;;5095131;28;20036;-70
2022/11/27 08:03:23;;;;;;;12.27;4.70;;;7.80;99.90;;;;;;5097255;28;20027;-69
2022/11/27 08:05:48;;;;;;;14.35;5.00;;;7.80;99.90;;;;;;5089878;28;20020;-69
2022/11/27 08:08:15;;;;;;;11.40;5.53;;;7.80;99.90;;;;;;5093527;28;20026;-68
2022/11/27 08:10:41;;;;;;;12.77;4.88;;;7.90;99.90;;;;;;5096843;28;20024;-70
2022/11/27 08:13:07;;;;;;;13.30;5.60;;;7.80;99.90;;;;;;5079302;28;20035;-70
2022/11/27 08:15:33;;;;;;;10.20;5.10;;;8.00;99.90;;;;;;5094744;28;20028;-70
2022/11/27 08:17:59;;;;;;;11.80;4.53;;;8.10;99.90;;;;;;5102206;28;20035;-70
2022/11/27 08:20:26;;;;;;;10.27;4.65;;;8.00;99.90;;;;;;5084450;28;20036;-68
2022/11/27 08:22:52;;;;;;;10.10;4.88;;;8.00;99.90;;;;;;5058034;28;20048;-70
2022/11/27 08:25:18;;;;;;;11.70;6.00;;;8.00;99.90;;;;;;5078146;28;20444;-69
2022/11/27 08:27:43;;;;;;;14.40;5.68;;;7.90;99.90;;;;;;5082191;28;20028;-69
2022/11/27 08:30:09;;;;;;;13.27;4.88;;;7.90;99.90;;;;;;5092880;28;20043;-70
2022/11/27 08:32:40;;;;;;;13.70;4.50;;;7.90;99.90;;;;;;5084613;28;20043;-69
2022/11/27 08:35:06;;;;;;;11.43;4.28;;;7.90;99.90;;;;;;5085588;28;20027;-69
2022/11/27 08:37:33;;;;;;;11.95;4.53;;;7.90;99.90;;;;;;5089137;28;20028;-66
2022/11/27 08:39:59;;;;;;;14.15;5.28;;;8.00;99.90;;;;;;5079041;28;20558;-69
2022/11/27 08:42:24;;;;;;;9.70;5.50;;;8.00;99.90;;;;;;5077397;28;20024;-70
2022/11/27 08:44:50;;;;;;;11.10;4.68;;;8.00;99.90;;;;;;5078722;28;20077;-70
2022/11/27 08:47:16;;;;;;;15.23;5.40;;;8.00;99.90;;;;;;5085428;28;20461;-67
2022/11/27 08:49:43;;;;;;;11.55;5.03;;;8.00;99.90;;;;;;5069943;28;20024;-70
2022/11/27 08:52:12;;;;;;;14.50;6.15;;;8.00;99.90;;;;;;5080536;28;20028;-69
2022/11/27 08:54:38;;;;;;;13.93;5.50;;;8.00;99.90;;;;;;5075566;28;20354;-67
2022/11/27 08:57:03;;;;;;;12.10;5.80;;;8.00;99.90;;;;;;5076472;28;20035;-68
2022/11/27 08:59:29;;;;;;;13.75;4.93;;;8.10;99.90;;;;;;5073513;28;20040;-70
2022/11/27 09:01:56;;;;;;;13.75;6.57;;;8.30;99.90;;;;;;5087521;28;20025;-66
2022/11/27 09:04:22;;;;;;;10.13;5.00;;;8.10;99.90;;;;;;5087819;28;20039;-70
2022/11/27 09:06:47;;;;;;;11.13;5.38;;;8.10;99.90;;;;;;5087144;28;20028;-69
2022/11/27 09:09:14;;;;;;;13.07;5.07;;;8.10;99.90;;;;;;5082705;28;20024;-70
2022/11/27 09:11:41;;;;;;;15.45;5.53;;;8.20;99.90;;;;;;5088538;28;20035;-71
2022/11/27 09:14:07;;;;;;;12.55;5.95;;;8.10;99.90;;;;;;5096887;28;20490;-72
2022/11/27 09:16:34;;;;;;;10.43;4.78;;;8.00;99.90;;;;;;5092586;28;20016;-66
2022/11/27 09:19:00;;;;;;;12.27;5.40;;;8.00;99.90;;;;;;5091031;28;20085;-65
2022/11/27 09:21:27;;;;;;;12.00;5.10;;;8.00;99.90;;;;;;5084436;28;20028;-70
2022/11/27 09:24:00;;;;;;;11.18;5.13;;;8.10;99.90;;;;;;5083431;28;20016;-75
2022/11/27 09:26:27;;;;;;;9.70;5.18;;;8.00;99.90;;;;;;5071716;28;20473;-71
2022/11/27 09:28:54;;;;;;;12.32;5.40;;;8.10;99.90;;;;;;5077048;28;20028;-70
2022/11/27 09:31:21;;;;;;;12.95;5.63;;;8.00;99.90;;;;;;5088718;28;20111;-66
2022/11/27 09:33:48;;;;;;;13.05;5.80;;;8.00;99.90;;;;;;5086774;28;20078;-69
2022/11/27 09:36:18;;;;;;;11.88;5.53;;;8.00;99.90;;;;;;5096630;28;20024;-70
2022/11/27 09:38:44;;;;;;;19.60;6.70;;;8.10;99.90;;;;;;5098804;28;20063;-65
2022/11/27 09:41:10;;;;;;;11.02;5.53;;;8.10;99.90;;;;;;5095825;28;20110;-66
2022/11/27 09:43:58;;;;;;;9.93;5.28;;;8.10;99.90;;;;;;5091381;28;20032;-70
2022/11/27 09:46:34;;;;;;;11.88;4.82;;;8.20;99.90;;;;;;5094746;28;20059;-66
2022/11/27 09:49:04;;;;;;;12.13;4.82;;;8.10;99.90;;;;;;5093004;28;20032;-69
2022/11/27 09:51:48;;;;;;;9.23;4.85;;;8.10;99.90;;;;;;5091713;28;20038;-70
2022/11/27 09:54:37;;;;;;;14.82;5.43;;;8.20;99.90;;;;;;5064496;28;20024;-65
2022/11/27 09:57:04;;;;;;;9.35;5.15;;;8.20;99.90;;;;;;5092990;28;20035;-70
2022/11/27 09:59:41;;;;;;;15.68;5.53;;;8.10;99.90;;;;;;5092054;28;20374;-71
2022/11/27 10:02:17;;;;;;;15.18;6.25;;;8.20;99.90;;;;;;5093095;28;20058;-67
2022/11/27 10:04:43;;;;;;;13.40;5.97;;;8.20;99.90;;;;;;5075064;28;20433;-70
2022/11/27 10:07:17;;;;;;;16.00;6.82;;;8.20;99.90;;;;;;5093158;28;20178;-70
2022/11/27 10:09:59;;;;;;;11.60;5.50;;;8.10;99.90;;;;;;5093257;28;20016;-71
2022/11/27 10:12:46;;;;;;;15.52;5.72;;;8.10;99.90;;;;;;5089674;28;20024;-70
2022/11/27 10:15:32;;;;;;;13.85;5.82;;;8.10;99.90;;;;;;5092491;28;20398;-70
2022/11/27 10:18:04;;;;;;;13.60;5.30;;;8.20;99.90;;;;;;5084285;28;20465;-70
2022/11/27 10:20:49;;;;;;;16.70;5.88;;;8.20;99.90;;;;;;5092161;28;20042;-66
2022/11/27 10:23:30;;;;;;;11.88;6.60;;;8.10;99.90;;;;;;5085614;28;20028;-70
2022/11/27 10:26:06;;;;;;;13.40;6.05;;;8.20;99.90;;;;;;5088777;28;20123;-70
2022/11/27 10:28:44;;;;;;;12.65;5.68;;;8.30;99.90;;;;;;5093086;28;20117;-69
2022/11/27 10:31:15;;;;;;;13.55;6.25;;;8.30;99.90;;;;;;5092467;28;20041;-68
2022/11/27 10:33:42;;;;;;;11.27;5.43;;;8.40;99.90;;;;;;5091300;28;20020;-65
2022/11/27 10:36:16;;;;;;;9.68;5.82;;;8.40;99.90;;;;;;5074506;28;20050;-72
2022/11/27 10:38:43;;;;;;;14.52;6.15;;;8.40;99.90;;;;;;5092666;28;20035;-71
2022/11/27 10:41:24;;;;;;;13.68;5.35;;;8.20;99.90;;;;;;5092422;28;20086;-72
2022/11/27 10:43:53;;;;;;;13.40;5.85;;;8.30;99.90;;;;;;5089786;28;20032;-71
2022/11/27 10:46:29;;;;;;;11.73;4.75;;;8.30;99.90;;;;;;5089011;28;20028;-71
2022/11/27 10:48:55;;;;;;;10.30;5.32;;;8.30;99.90;;;;;;5092259;28;20116;-70
2022/11/27 10:51:27;;;;;;;11.95;5.25;;;8.30;99.90;;;;;;5074444;28;20110;-72
2022/11/27 10:53:54;;;;;;;20.50;6.40;;;8.40;99.90;;;;;;5089938;28;20032;-70
2022/11/27 10:56:49;;;;;;;13.27;5.78;;;8.40;99.90;;;;;;5085835;28;20020;-68
2022/11/27 10:59:23;;;;;;;12.60;5.47;;;8.40;99.90;;;;;;5082451;28;20040;-75
2022/11/27 11:01:52;;;;;;;13.13;5.30;;;8.30;99.90;;;;;;5075770;28;20024;-72
2022/11/27 11:04:29;;;;;;;11.73;5.43;;;8.30;99.90;;;;;;5077640;28;20023;-70
2022/11/27 11:06:55;;;;;;;12.30;5.40;;;8.40;99.90;;;;;;5086285;28;20060;-71
2022/11/27 11:09:33;;;;;;;13.20;5.57;;;8.50;99.90;;;;;;5086138;28;20097;-70
2022/11/27 11:12:19;;;;;;;11.57;5.63;;;8.50;99.90;;;;;;5079405;28;20484;-68
2022/11/27 11:14:53;;;;;;;13.70;5.80;;;8.40;99.90;;;;;;5086311;28;20024;-70
2022/11/27 11:17:27;;;;;;;14.93;6.10;;;8.40;99.90;;;;;;5095183;28;20163;-72
2022/11/27 11:19:53;;;;;;;13.65;5.88;;;8.50;99.90;;;;;;5095720;28;20552;-72
2022/11/27 11:22:19;;;;;;;14.00;6.40;;;8.50;99.90;;;;;;5093693;28;20099;-71
2022/11/27 11:24:51;;;;;;;14.82;6.65;;;8.50;99.90;;;;;;5091357;28;20062;-69
2022/11/27 11:27:22;;;;;;;11.30;5.65;;;8.70;99.90;;;;;;5075887;28;20025;-69
2022/11/27 11:29:52;;;;;;;12.60;5.60;;;8.60;99.90;;;;;;5083294;28;20111;-70
2022/11/27 11:32:28;;;;;;;9.63;4.50;;;8.50;99.90;;;;;;5106394;28;20468;-66
2022/11/27 11:35:24;;;;;;;11.70;5.93;;;8.50;99.90;;;;;;5080198;28;20112;-72
2022/11/27 11:37:52;;;;;;;12.48;5.50;;;8.50;99.90;;;;;;5087006;28;20052;-69
2022/11/27 11:40:25;;;;;;;15.18;6.32;;;8.60;99.90;;;;;;5093805;28;20369;-66
2022/11/27 11:42:59;;;;;;;15.23;6.22;;;8.50;99.90;;;;;;5095074;28;20026;-69
2022/11/27 11:45:27;;;;;;;11.85;5.82;;;8.60;99.90;;;;;;5095473;28;20154;-70
2022/11/27 11:47:58;;;;;;;17.13;6.60;;;8.60;99.90;;;;;;5095671;28;20054;-72
2022/11/27 11:50:41;;;;;;;12.48;6.30;;;8.60;99.90;;;;;;5095914;28;20039;-72
2022/11/27 11:53:32;;;;;;;15.13;5.72;;;8.60;99.90;;;;;;5095901;28;20384;-68
2022/11/27 11:56:19;;;;;;;12.48;5.28;;;8.70;99.90;;;;;;5095751;28;20043;-66
2022/11/27 11:58:45;;;;;;;11.32;5.75;;;8.70;99.90;;;;;;5095718;28;20056;-70
2022/11/27 12:01:11;;;;;;;7.85;5.25;;;8.80;99.90;;;;;;5077231;28;20463;-68
2022/11/27 12:03:58;;;;;;;12.63;5.80;;;8.60;99.90;;;;;;5095728;28;20028;-71
2022/11/27 12:06:50;;;;;;;11.70;5.78;;;8.50;99.90;;;;;;5095579;28;20035;-69
2022/11/27 12:09:25;;;;;;;12.88;5.57;;;8.60;99.90;;;;;;5095686;28;20365;-68
2022/11/27 12:12:05;;;;;;;10.95;5.90;;;8.60;99.90;;;;;;5095369;28;20035;-70
2022/11/27 12:14:53;;;;;;;12.30;5.97;;;8.70;99.90;;;;;;5095615;28;20038;-72
2022/11/27 12:17:22;;;;;;;18.88;6.20;;;8.70;99.90;;;;;;5095402;28;20024;-69
2022/11/27 12:20:17;;;;;;;19.63;6.72;;;8.70;99.90;;;;;;5095656;28;20379;-68
2022/11/27 12:22:50;;;;;;;14.73;5.95;;;8.90;99.90;;;;;;5092565;28;20812;-67
2022/11/27 12:25:32;;;;;;;11.65;6.07;;;8.80;99.90;;;;;;5095307;28;20028;-68
2022/11/27 12:28:21;;;;;;;13.73;6.80;;;8.80;99.90;;;;;;5094985;28;20537;-67
2022/11/27 12:31:02;;;;;;;18.10;6.22;;;8.90;99.90;;;;;;5095177;28;20036;-70
2022/11/27 12:33:42;;;;;;;11.00;6.50;;;8.90;99.90;;;;;;5095198;28;20111;-68
2022/11/27 12:36:40;;;;;;;12.15;6.55;;;8.80;99.90;;;;;;5078032;28;20038;-71
2022/11/27 12:39:18;;;;;;;14.18;6.40;;;8.90;99.90;;;;;;5063769;28;20118;-69
2022/11/27 12:41:57;;;;;;;12.88;6.22;;;8.90;99.90;;;;;;5095648;28;20036;-68
2022/11/27 12:44:48;;;;;;;11.68;6.10;;;8.90;99.90;;;;;;5099117;28;20028;-71
2022/11/27 12:47:21;;;;;;;12.05;5.97;;;8.90;99.90;;;;;;5096455;28;20027;-70
2022/11/27 12:50:09;;;;;;;15.70;6.43;;;8.80;99.90;;;;;;5096577;28;20024;-71
2022/11/27 12:52:43;;;;;;;8.93;5.53;;;8.90;99.90;;;;;;5076337;28;20058;-71
2022/11/27 12:55:19;;;;;;;13.15;6.00;;;8.80;99.90;;;;;;5082401;28;20035;-72
2022/11/27 12:57:53;;;;;;;12.57;5.63;;;8.80;99.90;;;;;;5098525;28;20039;-68
2022/11/27 13:00:22;;;;;;;10.82;5.78;;;8.90;99.90;;;;;;5094161;28;20024;-72
2022/11/27 13:03:12;;;;;;;14.65;6.07;;;8.90;99.90;;;;;;5097064;28;20883;-73